sensor_id;sensor_type;location;lat;lon;timestamp;temperature;humidity
13817;DHT22;6979;52.116;5.286;2022-12-15T00:01:18;-0.20;99.90
13817;DHT22;6979;52.116;5.286;2022-12-15T00:04:03;-0.10;99.90
13817;DHT22;6979;52.116;5.286;2022-12-15T00:06:48;-0.10;99.90
13817;DHT22;6979;52.116;5.286;2022-12-15T00:09:33;-0.10;99.90
13817;DHT22;6979;52.116;5.286;2022-12-15T00:12:18;-0.10;99.90
13817;DHT22;6979;52.116;5.286;2022-12-15T00:15:03;-0.10;99.90
13817;DHT22;6979;52.116;5.286;2022-12-15T00:17:48;-0.10;99.90
13817;DHT22;6979;52.116;5.286;2022-12-15T00:20:32;-0.10;99.90
13817;DHT22;6979;52.116;5.286;2022-12-15T00:23:16;-0.20;99.90
13817;DHT22;6979;52.116;5.286;2022-12-15T00:26:02;-0.20;99.90
13817;DHT22;6979;52.116;5.286;2022-12-15T00:28:47;-0.10;99.90
13817;DHT22;6979;52.116;5.286;2022-12-15T00:31:31;-0.10;99.90
13817;DHT22;6979;52.116;5.286;2022-12-15T00:34:16;-0.10;99.90
13817;DHT22;6979;52.116;5.286;2022-12-15T00:37:00;-0.10;99.90
13817;DHT22;6979;52.116;5.286;2022-12-15T00:39:45;-0.10;99.90
13817;DHT22;6979;52.116;5.286;2022-12-15T00:42:24;-0.20;99.90
13817;DHT22;6979;52.116;5.286;2022-12-15T00:44:53;-0.10;99.90
13817;DHT22;6979;52.116;5.286;2022-12-15T00:47:20;-0.20;99.90
13817;DHT22;6979;52.116;5.286;2022-12-15T00:49:46;-0.20;99.90
13817;DHT22;6979;52.116;5.286;2022-12-15T00:52:30;-0.20;99.90
13817;DHT22;6979;52.116;5.286;2022-12-15T00:55:15;-0.20;99.90
13817;DHT22;6979;52.116;5.286;2022-12-15T00:58:00;-0.20;99.90
13817;DHT22;6979;52.116;5.286;2022-12-15T01:00:45;-0.20;99.90
13817;DHT22;6979;52.116;5.286;2022-12-15T01:03:29;-0.20;99.90
13817;DHT22;6979;52.116;5.286;2022-12-15T01:06:15;-0.20;99.90
13817;DHT22;6979;52.116;5.286;2022-12-15T01:09:01;-0.20;99.90
13817;DHT22;6979;52.116;5.286;2022-12-15T01:11:46;-0.30;99.90
13817;DHT22;6979;52.116;5.286;2022-12-15T01:14:32;-0.30;99.90
13817;DHT22;6979;52.116;5.286;2022-12-15T01:17:17;-0.30;99.90
13817;DHT22;6979;52.116;5.286;2022-12-15T01:20:02;-0.30;99.90
13817;DHT22;6979;52.116;5.286;2022-12-15T01:22:43;-0.40;99.90
13817;DHT22;6979;52.116;5.286;2022-12-15T01:25:10;-0.40;99.90
13817;DHT22;6979;52.116;5.286;2022-12-15T01:27:37;-0.40;99.90
13817;DHT22;6979;52.116;5.286;2022-12-15T01:30:08;-0.40;99.90
13817;DHT22;6979;52.116;5.286;2022-12-15T01:32:35;-0.40;99.90
13817;DHT22;6979;52.116;5.286;2022-12-15T01:35:02;-0.30;99.90
13817;DHT22;6979;52.116;5.286;2022-12-15T01:37:29;-0.40;99.90
13817;DHT22;6979;52.116;5.286;2022-12-15T01:39:56;-0.30;99.90
13817;DHT22;6979;52.116;5.286;2022-12-15T01:42:41;-0.40;99.90
13817;DHT22;6979;52.116;5.286;2022-12-15T01:45:50;-0.40;99.90
13817;DHT22;6979;52.116;5.286;2022-12-15T01:48:22;-0.30;99.90
13817;DHT22;6979;52.116;5.286;2022-12-15T01:50:57;-0.30;99.90
13817;DHT22;6979;52.116;5.286;2022-12-15T01:53:25;-0.30;99.90
13817;DHT22;6979;52.116;5.286;2022-12-15T01:55:53;-0.30;99.90
13817;DHT22;6979;52.116;5.286;2022-12-15T01:58:21;-0.30;99.90
13817;DHT22;6979;52.116;5.286;2022-12-15T02:00:49;-0.30;99.90
13817;DHT22;6979;52.116;5.286;2022-12-15T02:03:16;-0.30;99.90
13817;DHT22;6979;52.116;5.286;2022-12-15T02:05:44;-0.30;99.90
13817;DHT22;6979;52.116;5.286;2022-12-15T02:08:11;-0.30;99.90
13817;DHT22;6979;52.116;5.286;2022-12-15T02:10:54;-0.30;99.90
13817;DHT22;6979;52.116;5.286;2022-12-15T02:13:28;-0.30;99.90
13817;DHT22;6979;52.116;5.286;2022-12-15T02:16:04;-0.40;99.90
13817;DHT22;6979;52.116;5.286;2022-12-15T02:18:40;-0.40;99.90
13817;DHT22;6979;52.116;5.286;2022-12-15T02:21:12;-0.30;99.90
13817;DHT22;6979;52.116;5.286;2022-12-15T02:24:08;-0.30;99.90
13817;DHT22;6979;52.116;5.286;2022-12-15T02:30:21;-0.40;99.90
13817;DHT22;6979;52.116;5.286;2022-12-15T02:33:09;-0.40;99.90
13817;DHT22;6979;52.116;5.286;2022-12-15T02:35:46;-0.40;99.90
13817;DHT22;6979;52.116;5.286;2022-12-15T02:38:27;-0.40;99.90
13817;DHT22;6979;52.116;5.286;2022-12-15T02:40:57;-0.40;99.90
13817;DHT22;6979;52.116;5.286;2022-12-15T02:43:23;-0.40;99.90
13817;DHT22;6979;52.116;5.286;2022-12-15T02:45:54;-0.40;99.90
13817;DHT22;6979;52.116;5.286;2022-12-15T02:48:31;-0.40;99.90
13817;DHT22;6979;52.116;5.286;2022-12-15T02:51:10;-0.40;99.90
13817;DHT22;6979;52.116;5.286;2022-12-15T02:53:57;-0.50;99.90
13817;DHT22;6979;52.116;5.286;2022-12-15T02:56:34;-0.40;99.90
13817;DHT22;6979;52.116;5.286;2022-12-15T02:59:07;-0.40;99.90
13817;DHT22;6979;52.116;5.286;2022-12-15T03:01:42;-0.50;99.90
13817;DHT22;6979;52.116;5.286;2022-12-15T03:04:11;-0.50;99.90
13817;DHT22;6979;52.116;5.286;2022-12-15T03:06:39;-0.50;99.90
13817;DHT22;6979;52.116;5.286;2022-12-15T03:09:07;-0.50;99.90
13817;DHT22;6979;52.116;5.286;2022-12-15T03:11:35;-0.50;99.90
13817;DHT22;6979;52.116;5.286;2022-12-15T03:14:02;-0.50;99.90
13817;DHT22;6979;52.116;5.286;2022-12-15T03:16:29;-0.50;99.90
13817;DHT22;6979;52.116;5.286;2022-12-15T03:18:57;-0.50;99.90
13817;DHT22;6979;52.116;5.286;2022-12-15T03:21:24;-0.50;99.90
13817;DHT22;6979;52.116;5.286;2022-12-15T03:23:52;-0.50;99.90
13817;DHT22;6979;52.116;5.286;2022-12-15T03:26:19;-0.50;99.90
13817;DHT22;6979;52.116;5.286;2022-12-15T03:28:46;-0.50;99.90
13817;DHT22;6979;52.116;5.286;2022-12-15T03:31:13;-0.50;99.90
13817;DHT22;6979;52.116;5.286;2022-12-15T03:33:40;-0.60;99.90
13817;DHT22;6979;52.116;5.286;2022-12-15T03:36:08;-0.50;99.90
13817;DHT22;6979;52.116;5.286;2022-12-15T03:38:35;-0.50;99.90
13817;DHT22;6979;52.116;5.286;2022-12-15T03:41:02;-0.60;99.90
13817;DHT22;6979;52.116;5.286;2022-12-15T03:43:31;-0.60;99.90
13817;DHT22;6979;52.116;5.286;2022-12-15T03:45:58;-0.60;99.90
13817;DHT22;6979;52.116;5.286;2022-12-15T03:48:25;-0.60;99.90
13817;DHT22;6979;52.116;5.286;2022-12-15T03:50:52;-0.60;99.90
13817;DHT22;6979;52.116;5.286;2022-12-15T03:53:21;-0.70;99.90
13817;DHT22;6979;52.116;5.286;2022-12-15T03:55:48;-0.70;99.90
13817;DHT22;6979;52.116;5.286;2022-12-15T03:58:14;-0.70;99.90
13817;DHT22;6979;52.116;5.286;2022-12-15T04:00:41;-0.70;99.90
13817;DHT22;6979;52.116;5.286;2022-12-15T04:03:09;-0.70;99.90
13817;DHT22;6979;52.116;5.286;2022-12-15T04:05:37;-0.70;99.90
13817;DHT22;6979;52.116;5.286;2022-12-15T04:08:04;-0.70;99.90
13817;DHT22;6979;52.116;5.286;2022-12-15T04:10:33;-0.70;99.90
13817;DHT22;6979;52.116;5.286;2022-12-15T04:13:02;-0.70;99.90
13817;DHT22;6979;52.116;5.286;2022-12-15T04:15:29;-0.70;99.90
13817;DHT22;6979;52.116;5.286;2022-12-15T04:17:56;-0.70;99.90
13817;DHT22;6979;52.116;5.286;2022-12-15T04:20:23;-0.70;99.90
13817;DHT22;6979;52.116;5.286;2022-12-15T04:22:50;-0.70;99.90
13817;DHT22;6979;52.116;5.286;2022-12-15T04:25:20;-0.70;99.90
13817;DHT22;6979;52.116;5.286;2022-12-15T04:28:07;-0.70;99.90
13817;DHT22;6979;52.116;5.286;2022-12-15T04:30:53;-0.70;99.90
13817;DHT22;6979;52.116;5.286;2022-12-15T04:33:40;-0.70;99.90
13817;DHT22;6979;52.116;5.286;2022-12-15T04:36:26;-0.70;99.90
13817;DHT22;6979;52.116;5.286;2022-12-15T04:39:11;-0.70;99.90
13817;DHT22;6979;52.116;5.286;2022-12-15T04:41:58;-0.70;99.90
13817;DHT22;6979;52.116;5.286;2022-12-15T04:44:45;-0.70;99.90
13817;DHT22;6979;52.116;5.286;2022-12-15T04:47:29;-0.70;99.90
13817;DHT22;6979;52.116;5.286;2022-12-15T04:50:14;-0.70;99.90
13817;DHT22;6979;52.116;5.286;2022-12-15T04:53:06;-0.60;99.90
13817;DHT22;6979;52.116;5.286;2022-12-15T04:55:51;-0.60;99.90
13817;DHT22;6979;52.116;5.286;2022-12-15T04:58:35;-0.60;99.90
13817;DHT22;6979;52.116;5.286;2022-12-15T05:01:21;-0.60;99.90
13817;DHT22;6979;52.116;5.286;2022-12-15T05:04:06;-0.60;99.90
13817;DHT22;6979;52.116;5.286;2022-12-15T05:06:53;-0.60;99.90
13817;DHT22;6979;52.116;5.286;2022-12-15T05:09:38;-0.60;99.90
13817;DHT22;6979;52.116;5.286;2022-12-15T05:12:22;-0.60;99.90
13817;DHT22;6979;52.116;5.286;2022-12-15T05:15:07;-0.60;99.90
13817;DHT22;6979;52.116;5.286;2022-12-15T05:17:53;-0.60;99.90
13817;DHT22;6979;52.116;5.286;2022-12-15T05:20:38;-0.60;99.90
13817;DHT22;6979;52.116;5.286;2022-12-15T05:23:22;-0.60;99.90
13817;DHT22;6979;52.116;5.286;2022-12-15T05:26:06;-0.60;99.90
13817;DHT22;6979;52.116;5.286;2022-12-15T05:28:51;-0.60;99.90
13817;DHT22;6979;52.116;5.286;2022-12-15T05:31:35;-0.60;99.90
13817;DHT22;6979;52.116;5.286;2022-12-15T05:34:19;-0.60;99.90
13817;DHT22;6979;52.116;5.286;2022-12-15T05:36:47;-0.60;99.90
13817;DHT22;6979;52.116;5.286;2022-12-15T05:39:14;-0.60;99.90
13817;DHT22;6979;52.116;5.286;2022-12-15T05:41:41;-0.60;99.90
13817;DHT22;6979;52.116;5.286;2022-12-15T05:44:08;-0.60;99.90
13817;DHT22;6979;52.116;5.286;2022-12-15T05:46:35;-0.60;99.90
13817;DHT22;6979;52.116;5.286;2022-12-15T05:49:03;-0.60;99.90
13817;DHT22;6979;52.116;5.286;2022-12-15T05:51:32;-0.60;99.90
13817;DHT22;6979;52.116;5.286;2022-12-15T05:53:59;-0.60;99.90
13817;DHT22;6979;52.116;5.286;2022-12-15T05:56:26;-0.60;99.90
13817;DHT22;6979;52.116;5.286;2022-12-15T05:58:54;-0.60;99.90
13817;DHT22;6979;52.116;5.286;2022-12-15T06:01:22;-0.60;99.90
13817;DHT22;6979;52.116;5.286;2022-12-15T06:03:50;-0.60;99.90
13817;DHT22;6979;52.116;5.286;2022-12-15T06:06:17;-0.60;99.90
13817;DHT22;6979;52.116;5.286;2022-12-15T06:08:46;-0.60;99.90
13817;DHT22;6979;52.116;5.286;2022-12-15T06:11:14;-0.60;99.90
13817;DHT22;6979;52.116;5.286;2022-12-15T06:13:42;-0.60;99.90
13817;DHT22;6979;52.116;5.286;2022-12-15T06:16:12;-0.60;99.90
13817;DHT22;6979;52.116;5.286;2022-12-15T06:18:41;-0.60;99.90
13817;DHT22;6979;52.116;5.286;2022-12-15T06:21:10;-0.60;99.90
13817;DHT22;6979;52.116;5.286;2022-12-15T06:23:38;-0.60;99.90
13817;DHT22;6979;52.116;5.286;2022-12-15T06:26:11;-0.60;99.90
13817;DHT22;6979;52.116;5.286;2022-12-15T06:28:40;-0.50;99.90
13817;DHT22;6979;52.116;5.286;2022-12-15T06:31:09;-0.50;99.90
13817;DHT22;6979;52.116;5.286;2022-12-15T06:33:37;-0.50;99.90
13817;DHT22;6979;52.116;5.286;2022-12-15T06:36:06;-0.50;99.90
13817;DHT22;6979;52.116;5.286;2022-12-15T06:38:33;-0.50;99.90
13817;DHT22;6979;52.116;5.286;2022-12-15T06:41:02;-0.50;99.90
13817;DHT22;6979;52.116;5.286;2022-12-15T06:43:32;-0.40;99.90
13817;DHT22;6979;52.116;5.286;2022-12-15T06:45:59;-0.40;99.90
13817;DHT22;6979;52.116;5.286;2022-12-15T06:48:26;-0.40;99.90
13817;DHT22;6979;52.116;5.286;2022-12-15T06:50:54;-0.40;99.90
13817;DHT22;6979;52.116;5.286;2022-12-15T06:53:23;-0.40;99.90
13817;DHT22;6979;52.116;5.286;2022-12-15T06:55:50;-0.40;99.90
13817;DHT22;6979;52.116;5.286;2022-12-15T06:58:17;-0.40;99.90
13817;DHT22;6979;52.116;5.286;2022-12-15T07:00:45;-0.40;99.90
13817;DHT22;6979;52.116;5.286;2022-12-15T07:03:13;-0.30;99.90
13817;DHT22;6979;52.116;5.286;2022-12-15T07:05:41;-0.30;99.90
13817;DHT22;6979;52.116;5.286;2022-12-15T07:08:09;-0.40;99.90
13817;DHT22;6979;52.116;5.286;2022-12-15T07:10:37;-0.30;99.90
13817;DHT22;6979;52.116;5.286;2022-12-15T07:13:05;-0.30;99.90
13817;DHT22;6979;52.116;5.286;2022-12-15T07:15:32;-0.30;99.90
13817;DHT22;6979;52.116;5.286;2022-12-15T07:18:01;-0.30;99.90
13817;DHT22;6979;52.116;5.286;2022-12-15T07:20:27;-0.30;99.90
13817;DHT22;6979;52.116;5.286;2022-12-15T07:22:54;-0.30;99.90
13817;DHT22;6979;52.116;5.286;2022-12-15T07:25:21;-0.30;99.90
13817;DHT22;6979;52.116;5.286;2022-12-15T07:27:48;-0.30;99.90
13817;DHT22;6979;52.116;5.286;2022-12-15T07:30:16;-0.30;99.90
13817;DHT22;6979;52.116;5.286;2022-12-15T07:32:43;-0.40;99.90
13817;DHT22;6979;52.116;5.286;2022-12-15T07:35:12;-0.40;99.90
13817;DHT22;6979;52.116;5.286;2022-12-15T07:37:39;-0.40;99.90
13817;DHT22;6979;52.116;5.286;2022-12-15T07:40:06;-0.40;99.90
13817;DHT22;6979;52.116;5.286;2022-12-15T07:42:34;-0.40;99.90
13817;DHT22;6979;52.116;5.286;2022-12-15T07:45:02;-0.40;99.90
13817;DHT22;6979;52.116;5.286;2022-12-15T07:47:30;-0.40;99.90
13817;DHT22;6979;52.116;5.286;2022-12-15T07:49:57;-0.40;99.90
13817;DHT22;6979;52.116;5.286;2022-12-15T07:52:25;-0.40;99.90
13817;DHT22;6979;52.116;5.286;2022-12-15T07:54:52;-0.30;99.90
13817;DHT22;6979;52.116;5.286;2022-12-15T07:57:19;-0.30;99.90
13817;DHT22;6979;52.116;5.286;2022-12-15T07:59:45;-0.30;99.90
13817;DHT22;6979;52.116;5.286;2022-12-15T08:02:13;-0.30;99.90
13817;DHT22;6979;52.116;5.286;2022-12-15T08:04:40;-0.20;99.90
13817;DHT22;6979;52.116;5.286;2022-12-15T08:07:07;-0.20;99.90
13817;DHT22;6979;52.116;5.286;2022-12-15T08:09:36;-0.20;99.90
13817;DHT22;6979;52.116;5.286;2022-12-15T08:12:03;-0.20;99.90
13817;DHT22;6979;52.116;5.286;2022-12-15T08:14:30;-0.20;99.90
13817;DHT22;6979;52.116;5.286;2022-12-15T08:16:57;-0.10;99.90
13817;DHT22;6979;52.116;5.286;2022-12-15T08:19:24;-0.10;99.90
13817;DHT22;6979;52.116;5.286;2022-12-15T08:21:51;-0.10;99.90
13817;DHT22;6979;52.116;5.286;2022-12-15T08:24:18;-0.10;99.90
13817;DHT22;6979;52.116;5.286;2022-12-15T08:26:46;0.00;99.90
13817;DHT22;6979;52.116;5.286;2022-12-15T08:29:13;0.00;99.90
13817;DHT22;6979;52.116;5.286;2022-12-15T08:31:40;0.00;99.90
13817;DHT22;6979;52.116;5.286;2022-12-15T08:34:08;0.10;99.90
13817;DHT22;6979;52.116;5.286;2022-12-15T08:36:35;0.10;99.90
13817;DHT22;6979;52.116;5.286;2022-12-15T08:39:02;0.10;99.90
13817;DHT22;6979;52.116;5.286;2022-12-15T08:41:31;0.20;99.90
13817;DHT22;6979;52.116;5.286;2022-12-15T08:44:00;0.20;99.90
13817;DHT22;6979;52.116;5.286;2022-12-15T08:46:29;0.20;99.90
13817;DHT22;6979;52.116;5.286;2022-12-15T08:48:58;0.20;99.90
13817;DHT22;6979;52.116;5.286;2022-12-15T08:51:27;0.20;99.90
13817;DHT22;6979;52.116;5.286;2022-12-15T08:53:55;0.30;99.90
13817;DHT22;6979;52.116;5.286;2022-12-15T08:56:23;0.30;99.90
13817;DHT22;6979;52.116;5.286;2022-12-15T08:58:54;0.40;99.90
13817;DHT22;6979;52.116;5.286;2022-12-15T09:01:24;0.40;99.90
13817;DHT22;6979;52.116;5.286;2022-12-15T09:03:52;0.40;99.90
13817;DHT22;6979;52.116;5.286;2022-12-15T09:06:21;0.50;99.90
13817;DHT22;6979;52.116;5.286;2022-12-15T09:08:49;0.60;99.90
13817;DHT22;6979;52.116;5.286;2022-12-15T09:11:16;0.60;99.90
13817;DHT22;6979;52.116;5.286;2022-12-15T09:13:43;0.70;99.90
13817;DHT22;6979;52.116;5.286;2022-12-15T09:16:13;0.80;99.90
13817;DHT22;6979;52.116;5.286;2022-12-15T09:18:42;0.80;99.90
13817;DHT22;6979;52.116;5.286;2022-12-15T09:21:11;0.90;99.90
13817;DHT22;6979;52.116;5.286;2022-12-15T09:23:39;1.00;99.90
13817;DHT22;6979;52.116;5.286;2022-12-15T09:26:07;1.00;99.90
13817;DHT22;6979;52.116;5.286;2022-12-15T09:28:35;1.10;99.90
13817;DHT22;6979;52.116;5.286;2022-12-15T09:31:02;1.40;99.90
13817;DHT22;6979;52.116;5.286;2022-12-15T09:33:29;1.70;99.90
13817;DHT22;6979;52.116;5.286;2022-12-15T09:35:58;2.20;99.90
13817;DHT22;6979;52.116;5.286;2022-12-15T09:38:25;2.70;99.90
13817;DHT22;6979;52.116;5.286;2022-12-15T09:40:52;3.30;99.90
13817;DHT22;6979;52.116;5.286;2022-12-15T09:43:21;3.80;99.90
13817;DHT22;6979;52.116;5.286;2022-12-15T09:45:57;4.50;99.90
13817;DHT22;6979;52.116;5.286;2022-12-15T09:48:31;5.10;99.90
13817;DHT22;6979;52.116;5.286;2022-12-15T09:51:03;5.70;99.90
13817;DHT22;6979;52.116;5.286;2022-12-15T09:53:30;6.30;99.90
13817;DHT22;6979;52.116;5.286;2022-12-15T09:56:03;6.90;99.90
13817;DHT22;6979;52.116;5.286;2022-12-15T09:58:40;7.40;99.90
13817;DHT22;6979;52.116;5.286;2022-12-15T10:01:14;7.90;99.90
13817;DHT22;6979;52.116;5.286;2022-12-15T10:03:52;8.40;99.90
13817;DHT22;6979;52.116;5.286;2022-12-15T10:06:25;8.80;99.90
13817;DHT22;6979;52.116;5.286;2022-12-15T10:08:58;9.20;99.90
13817;DHT22;6979;52.116;5.286;2022-12-15T10:11:38;9.50;99.90
13817;DHT22;6979;52.116;5.286;2022-12-15T10:14:15;9.90;99.90
13817;DHT22;6979;52.116;5.286;2022-12-15T10:16:52;10.30;99.90
13817;DHT22;6979;52.116;5.286;2022-12-15T10:19:28;10.70;99.90
13817;DHT22;6979;52.116;5.286;2022-12-15T10:21:58;10.90;99.90
13817;DHT22;6979;52.116;5.286;2022-12-15T10:24:28;11.10;99.90
13817;DHT22;6979;52.116;5.286;2022-12-15T10:27:01;11.30;99.90
13817;DHT22;6979;52.116;5.286;2022-12-15T10:29:39;11.50;99.90
13817;DHT22;6979;52.116;5.286;2022-12-15T10:32:19;11.60;99.90
13817;DHT22;6979;52.116;5.286;2022-12-15T10:34:46;11.80;99.90
13817;DHT22;6979;52.116;5.286;2022-12-15T10:37:17;11.90;99.90
13817;DHT22;6979;52.116;5.286;2022-12-15T10:39:46;12.00;99.90
13817;DHT22;6979;52.116;5.286;2022-12-15T10:42:16;12.10;99.90
13817;DHT22;6979;52.116;5.286;2022-12-15T10:44:46;12.20;99.90
13817;DHT22;6979;52.116;5.286;2022-12-15T10:47:21;12.20;99.90
13817;DHT22;6979;52.116;5.286;2022-12-15T10:49:50;12.20;99.90
13817;DHT22;6979;52.116;5.286;2022-12-15T10:52:25;12.10;99.90
13817;DHT22;6979;52.116;5.286;2022-12-15T10:54:54;11.90;99.90
13817;DHT22;6979;52.116;5.286;2022-12-15T10:57:23;11.70;99.90
13817;DHT22;6979;52.116;5.286;2022-12-15T10:59:53;11.40;99.90
13817;DHT22;6979;52.116;5.286;2022-12-15T11:02:38;11.20;99.90
13817;DHT22;6979;52.116;5.286;2022-12-15T11:05:15;10.90;99.90
13817;DHT22;6979;52.116;5.286;2022-12-15T11:07:45;10.60;99.90
13817;DHT22;6979;52.116;5.286;2022-12-15T11:10:19;10.30;99.90
13817;DHT22;6979;52.116;5.286;2022-12-15T11:12:56;9.90;99.90
13817;DHT22;6979;52.116;5.286;2022-12-15T11:15:41;9.50;99.90
13817;DHT22;6979;52.116;5.286;2022-12-15T11:18:25;9.20;99.90
13817;DHT22;6979;52.116;5.286;2022-12-15T11:20:58;8.90;99.90
13817;DHT22;6979;52.116;5.286;2022-12-15T11:23:37;8.70;99.90
13817;DHT22;6979;52.116;5.286;2022-12-15T11:26:26;8.40;99.90
13817;DHT22;6979;52.116;5.286;2022-12-15T11:28:59;8.30;99.90
13817;DHT22;6979;52.116;5.286;2022-12-15T11:31:32;8.30;99.90
13817;DHT22;6979;52.116;5.286;2022-12-15T11:34:00;8.30;99.90
13817;DHT22;6979;52.116;5.286;2022-12-15T11:36:48;8.40;99.90
13817;DHT22;6979;52.116;5.286;2022-12-15T11:39:28;8.40;99.90
13817;DHT22;6979;52.116;5.286;2022-12-15T11:42:06;8.50;99.90
13817;DHT22;6979;52.116;5.286;2022-12-15T11:44:43;8.60;99.90
13817;DHT22;6979;52.116;5.286;2022-12-15T11:47:18;8.60;99.90
13817;DHT22;6979;52.116;5.286;2022-12-15T11:50:08;8.60;99.90
13817;DHT22;6979;52.116;5.286;2022-12-15T11:52:49;8.60;99.90
13817;DHT22;6979;52.116;5.286;2022-12-15T11:55:29;8.60;99.90
13817;DHT22;6979;52.116;5.286;2022-12-15T11:58:27;8.60;99.90
13817;DHT22;6979;52.116;5.286;2022-12-15T12:01:04;8.50;99.90
13817;DHT22;6979;52.116;5.286;2022-12-15T12:03:39;8.50;99.90
13817;DHT22;6979;52.116;5.286;2022-12-15T12:06:18;8.40;99.90
13817;DHT22;6979;52.116;5.286;2022-12-15T12:09:02;8.30;99.90
13817;DHT22;6979;52.116;5.286;2022-12-15T12:11:40;8.20;99.90
13817;DHT22;6979;52.116;5.286;2022-12-15T12:14:15;8.10;99.90
13817;DHT22;6979;52.116;5.286;2022-12-15T12:16:50;8.10;99.90
13817;DHT22;6979;52.116;5.286;2022-12-15T12:19:24;8.00;99.90
13817;DHT22;6979;52.116;5.286;2022-12-15T12:21:57;8.00;99.90
13817;DHT22;6979;52.116;5.286;2022-12-15T12:24:29;8.00;99.90
13817;DHT22;6979;52.116;5.286;2022-12-15T12:27:01;8.00;99.90
13817;DHT22;6979;52.116;5.286;2022-12-15T12:29:33;8.10;99.90
13817;DHT22;6979;52.116;5.286;2022-12-15T12:32:05;8.00;99.90
13817;DHT22;6979;52.116;5.286;2022-12-15T12:34:40;8.00;99.90
13817;DHT22;6979;52.116;5.286;2022-12-15T12:37:16;8.00;99.90
13817;DHT22;6979;52.116;5.286;2022-12-15T12:39:45;8.00;99.90
13817;DHT22;6979;52.116;5.286;2022-12-15T12:42:17;8.10;99.90
13817;DHT22;6979;52.116;5.286;2022-12-15T12:44:47;8.20;99.90
13817;DHT22;6979;52.116;5.286;2022-12-15T12:47:19;8.30;99.90
13817;DHT22;6979;52.116;5.286;2022-12-15T12:49:50;8.30;99.90
13817;DHT22;6979;52.116;5.286;2022-12-15T12:52:22;8.30;99.90
13817;DHT22;6979;52.116;5.286;2022-12-15T12:54:54;8.40;99.90
13817;DHT22;6979;52.116;5.286;2022-12-15T12:57:33;8.40;99.90
13817;DHT22;6979;52.116;5.286;2022-12-15T13:00:12;8.50;99.90
13817;DHT22;6979;52.116;5.286;2022-12-15T13:02:52;8.40;99.90
13817;DHT22;6979;52.116;5.286;2022-12-15T13:05:26;8.40;99.90
13817;DHT22;6979;52.116;5.286;2022-12-15T13:07:54;8.50;99.90
13817;DHT22;6979;52.116;5.286;2022-12-15T13:10:23;8.50;99.90
13817;DHT22;6979;52.116;5.286;2022-12-15T13:12:52;8.60;99.90
13817;DHT22;6979;52.116;5.286;2022-12-15T13:15:33;8.70;99.90
13817;DHT22;6979;52.116;5.286;2022-12-15T13:18:06;8.70;99.90
13817;DHT22;6979;52.116;5.286;2022-12-15T13:20:35;8.70;99.90
13817;DHT22;6979;52.116;5.286;2022-12-15T13:23:40;8.60;99.90
13817;DHT22;6979;52.116;5.286;2022-12-15T13:26:17;8.60;99.90
13817;DHT22;6979;52.116;5.286;2022-12-15T13:28:50;8.60;99.90
13817;DHT22;6979;52.116;5.286;2022-12-15T13:31:41;8.50;99.90
13817;DHT22;6979;52.116;5.286;2022-12-15T13:34:27;8.40;99.90
13817;DHT22;6979;52.116;5.286;2022-12-15T13:36:57;8.30;99.90
13817;DHT22;6979;52.116;5.286;2022-12-15T13:39:33;8.20;99.90
13817;DHT22;6979;52.116;5.286;2022-12-15T13:42:29;8.20;99.90
13817;DHT22;6979;52.116;5.286;2022-12-15T13:48:07;8.20;99.90
13817;DHT22;6979;52.116;5.286;2022-12-15T13:50:43;8.30;99.90
13817;DHT22;6979;52.116;5.286;2022-12-15T13:53:16;8.30;99.90
13817;DHT22;6979;52.116;5.286;2022-12-15T13:55:58;8.30;99.90
13817;DHT22;6979;52.116;5.286;2022-12-15T13:58:28;8.20;99.90
13817;DHT22;6979;52.116;5.286;2022-12-15T14:00:59;8.20;99.90
13817;DHT22;6979;52.116;5.286;2022-12-15T14:03:27;8.20;99.90
13817;DHT22;6979;52.116;5.286;2022-12-15T14:05:56;8.10;99.90
13817;DHT22;6979;52.116;5.286;2022-12-15T14:08:25;8.10;99.90
13817;DHT22;6979;52.116;5.286;2022-12-15T14:10:55;8.10;99.90
13817;DHT22;6979;52.116;5.286;2022-12-15T14:13:24;8.10;99.90
13817;DHT22;6979;52.116;5.286;2022-12-15T14:15:53;8.10;99.90
13817;DHT22;6979;52.116;5.286;2022-12-15T14:18:25;8.10;99.90
13817;DHT22;6979;52.116;5.286;2022-12-15T14:20:53;8.10;99.90
13817;DHT22;6979;52.116;5.286;2022-12-15T14:23:23;8.20;99.90
13817;DHT22;6979;52.116;5.286;2022-12-15T14:25:54;8.20;99.90
13817;DHT22;6979;52.116;5.286;2022-12-15T14:28:27;8.20;99.90
13817;DHT22;6979;52.116;5.286;2022-12-15T14:30:57;8.20;99.90
13817;DHT22;6979;52.116;5.286;2022-12-15T14:33:27;8.20;99.90
13817;DHT22;6979;52.116;5.286;2022-12-15T14:35:56;8.20;99.90
13817;DHT22;6979;52.116;5.286;2022-12-15T14:38:26;8.30;99.90
13817;DHT22;6979;52.116;5.286;2022-12-15T14:40:56;8.30;99.90
13817;DHT22;6979;52.116;5.286;2022-12-15T14:43:29;8.30;99.90
13817;DHT22;6979;52.116;5.286;2022-12-15T14:46:06;8.30;99.90
13817;DHT22;6979;52.116;5.286;2022-12-15T14:48:37;8.40;99.90
13817;DHT22;6979;52.116;5.286;2022-12-15T14:51:08;8.40;99.90
13817;DHT22;6979;52.116;5.286;2022-12-15T14:53:37;8.40;99.90
13817;DHT22;6979;52.116;5.286;2022-12-15T14:56:18;8.40;99.90
13817;DHT22;6979;52.116;5.286;2022-12-15T14:58:53;8.40;99.90
13817;DHT22;6979;52.116;5.286;2022-12-15T15:01:23;8.30;99.90
13817;DHT22;6979;52.116;5.286;2022-12-15T15:03:59;8.20;99.90
13817;DHT22;6979;52.116;5.286;2022-12-15T15:06:32;8.10;99.90
13817;DHT22;6979;52.116;5.286;2022-12-15T15:09:10;8.00;99.90
13817;DHT22;6979;52.116;5.286;2022-12-15T15:11:41;7.90;99.90
13817;DHT22;6979;52.116;5.286;2022-12-15T15:14:12;7.70;99.90
13817;DHT22;6979;52.116;5.286;2022-12-15T15:16:40;7.60;99.90
13817;DHT22;6979;52.116;5.286;2022-12-15T15:19:15;7.50;99.90
13817;DHT22;6979;52.116;5.286;2022-12-15T15:21:44;7.40;99.90
13817;DHT22;6979;52.116;5.286;2022-12-15T15:24:23;7.30;99.90
13817;DHT22;6979;52.116;5.286;2022-12-15T15:26:50;7.10;99.90
13817;DHT22;6979;52.116;5.286;2022-12-15T15:29:37;7.00;99.90
13817;DHT22;6979;52.116;5.286;2022-12-15T15:32:13;6.90;99.90
13817;DHT22;6979;52.116;5.286;2022-12-15T15:34:43;6.80;99.90
13817;DHT22;6979;52.116;5.286;2022-12-15T15:37:16;6.80;99.90
13817;DHT22;6979;52.116;5.286;2022-12-15T15:39:43;6.70;99.90
13817;DHT22;6979;52.116;5.286;2022-12-15T15:42:11;6.60;99.90
13817;DHT22;6979;52.116;5.286;2022-12-15T15:44:38;6.50;99.90
13817;DHT22;6979;52.116;5.286;2022-12-15T15:47:07;6.50;99.90
13817;DHT22;6979;52.116;5.286;2022-12-15T15:49:43;6.40;99.90
13817;DHT22;6979;52.116;5.286;2022-12-15T15:52:12;6.30;99.90
13817;DHT22;6979;52.116;5.286;2022-12-15T15:54:39;6.30;99.90
13817;DHT22;6979;52.116;5.286;2022-12-15T15:57:11;6.10;99.90
13817;DHT22;6979;52.116;5.286;2022-12-15T15:59:40;6.10;99.90
13817;DHT22;6979;52.116;5.286;2022-12-15T16:02:10;6.00;99.90
13817;DHT22;6979;52.116;5.286;2022-12-15T16:04:38;5.90;99.90
13817;DHT22;6979;52.116;5.286;2022-12-15T16:07:15;5.90;99.90
13817;DHT22;6979;52.116;5.286;2022-12-15T16:09:43;5.80;99.90
13817;DHT22;6979;52.116;5.286;2022-12-15T16:12:23;5.80;99.90
13817;DHT22;6979;52.116;5.286;2022-12-15T16:14:52;5.70;99.90
13817;DHT22;6979;52.116;5.286;2022-12-15T16:17:19;5.60;99.90
13817;DHT22;6979;52.116;5.286;2022-12-15T16:19:46;5.60;99.90
13817;DHT22;6979;52.116;5.286;2022-12-15T16:22:17;5.50;99.90
13817;DHT22;6979;52.116;5.286;2022-12-15T16:24:44;5.50;99.90
13817;DHT22;6979;52.116;5.286;2022-12-15T16:27:13;5.40;99.90
13817;DHT22;6979;52.116;5.286;2022-12-15T16:29:40;5.40;99.90
13817;DHT22;6979;52.116;5.286;2022-12-15T16:32:08;5.30;99.90
13817;DHT22;6979;52.116;5.286;2022-12-15T16:34:35;5.30;99.90
13817;DHT22;6979;52.116;5.286;2022-12-15T16:37:02;5.20;99.90